sensor_id;sensor_type;location;lat;lon;timestamp;pressure;altitude;pressure_sealevel;temperature;humidity
76994;BME280;66749;47.406;18.822;2023-02-11T00:00:18;102501.22;;;-4.30;75.13
76994;BME280;66749;47.406;18.822;2023-02-11T00:00:50;102503.03;;;-4.26;74.73
76994;BME280;66749;47.406;18.822;2023-02-11T00:01:31;102506.50;;;-4.24;75.76
76994;BME280;66749;47.406;18.822;2023-02-11T00:02:03;102504.91;;;-4.22;75.43
76994;BME280;66749;47.406;18.822;2023-02-11T00:02:35;102501.22;;;-4.30;75.92
76994;BME280;66749;47.406;18.822;2023-02-11T00:03:08;102501.81;;;-4.36;75.46
76994;BME280;66749;47.406;18.822;2023-02-11T00:03:39;102504.19;;;-4.40;75.32
76994;BME280;66749;47.406;18.822;2023-02-11T00:04:12;102505.91;;;-4.39;75.18
76994;BME280;66749;47.406;18.822;2023-02-11T00:04:43;102504.25;;;-4.39;75.15
76994;BME280;66749;47.406;18.822;2023-02-11T00:05:15;102501.88;;;-4.34;75.24
76994;BME280;66749;47.406;18.822;2023-02-11T00:06:01;102502.75;;;-4.34;75.16
76994;BME280;66749;47.406;18.822;2023-02-11T00:06:34;102498.47;;;-4.35;74.33
76994;BME280;66749;47.406;18.822;2023-02-11T00:07:06;102501.78;;;-4.37;74.24
76994;BME280;66749;47.406;18.822;2023-02-11T00:07:38;102499.97;;;-4.40;74.52
76994;BME280;66749;47.406;18.822;2023-02-11T00:08:10;102501.63;;;-4.40;74.62
76994;BME280;66749;47.406;18.822;2023-02-11T00:08:47;102503.25;;;-4.42;75.13
76994;BME280;66749;47.406;18.822;2023-02-11T00:09:19;102506.78;;;-4.39;74.41
76994;BME280;66749;47.406;18.822;2023-02-11T00:09:50;102500.81;;;-4.39;74.15
76994;BME280;66749;47.406;18.822;2023-02-11T00:10:22;102499.09;;;-4.40;74.72
76994;BME280;66749;47.406;18.822;2023-02-11T00:10:55;102501.69;;;-4.39;74.59
76994;BME280;66749;47.406;18.822;2023-02-11T00:11:28;102498.41;;;-4.36;74.40
76994;BME280;66749;47.406;18.822;2023-02-11T00:12:01;102499.28;;;-4.36;74.86
76994;BME280;66749;47.406;18.822;2023-02-11T00:12:34;102499.22;;;-4.37;74.20
76994;BME280;66749;47.406;18.822;2023-02-11T00:13:05;102495.00;;;-4.37;74.29
76994;BME280;66749;47.406;18.822;2023-02-11T00:13:37;102489.94;;;-4.35;74.73
76994;BME280;66749;47.406;18.822;2023-02-11T00:14:09;102493.41;;;-4.33;74.27
76994;BME280;66749;47.406;18.822;2023-02-11T00:14:42;102500.16;;;-4.35;74.97
76994;BME280;66749;47.406;18.822;2023-02-11T00:15:13;102492.44;;;-4.37;74.95
76994;BME280;66749;47.406;18.822;2023-02-11T00:15:45;102496.69;;;-4.37;74.72
76994;BME280;66749;47.406;18.822;2023-02-11T00:16:19;102500.91;;;-4.38;75.02
76994;BME280;66749;47.406;18.822;2023-02-11T00:16:51;102494.75;;;-4.43;74.33
76994;BME280;66749;47.406;18.822;2023-02-11T00:17:23;102493.88;;;-4.43;74.85
76994;BME280;66749;47.406;18.822;2023-02-11T00:17:55;102496.28;;;-4.47;74.54
76994;BME280;66749;47.406;18.822;2023-02-11T00:18:26;102489.47;;;-4.48;74.63
76994;BME280;66749;47.406;18.822;2023-02-11T00:19:00;102489.41;;;-4.49;74.85
76994;BME280;66749;47.406;18.822;2023-02-11T00:19:32;102488.50;;;-4.51;74.62
76994;BME280;66749;47.406;18.822;2023-02-11T00:20:05;102496.28;;;-4.47;75.07
76994;BME280;66749;47.406;18.822;2023-02-11T00:20:38;102491.19;;;-4.47;75.13
76994;BME280;66749;47.406;18.822;2023-02-11T00:21:13;102490.34;;;-4.47;74.61
76994;BME280;66749;47.406;18.822;2023-02-11T00:21:45;102496.13;;;-4.51;74.85
76994;BME280;66749;47.406;18.822;2023-02-11T00:22:17;102486.81;;;-4.51;74.97
76994;BME280;66749;47.406;18.822;2023-02-11T00:22:49;102490.16;;;-4.52;74.63
76994;BME280;66749;47.406;18.822;2023-02-11T00:23:20;102486.81;;;-4.51;74.59
76994;BME280;66749;47.406;18.822;2023-02-11T00:23:53;102486.81;;;-4.51;75.00
76994;BME280;66749;47.406;18.822;2023-02-11T00:24:27;102485.94;;;-4.51;74.71
76994;BME280;66749;47.406;18.822;2023-02-11T00:25:00;102477.50;;;-4.50;75.00
76994;BME280;66749;47.406;18.822;2023-02-11T00:25:32;102484.25;;;-4.51;74.92
76994;BME280;66749;47.406;18.822;2023-02-11T00:26:13;102489.34;;;-4.51;74.55
76994;BME280;66749;47.406;18.822;2023-02-11T00:26:45;102482.47;;;-4.53;74.46
76994;BME280;66749;47.406;18.822;2023-02-11T00:27:17;102481.47;;;-4.57;75.08
76994;BME280;66749;47.406;18.822;2023-02-11T00:27:49;102483.34;;;-4.53;74.71
76994;BME280;66749;47.406;18.822;2023-02-11T00:28:21;102486.66;;;-4.54;74.78
76994;BME280;66749;47.406;18.822;2023-02-11T00:28:52;102481.56;;;-4.54;75.14
76994;BME280;66749;47.406;18.822;2023-02-11T00:29:24;102485.69;;;-4.57;74.46
76994;BME280;66749;47.406;18.822;2023-02-11T00:29:56;102481.56;;;-4.54;74.37
76994;BME280;66749;47.406;18.822;2023-02-11T00:30:28;102488.28;;;-4.56;74.96
76994;BME280;66749;47.406;18.822;2023-02-11T00:30:59;102479.72;;;-4.58;74.80
76994;BME280;66749;47.406;18.822;2023-02-11T00:31:33;102481.38;;;-4.60;74.47
76994;BME280;66749;47.406;18.822;2023-02-11T00:32:05;102478.00;;;-4.59;74.74
76994;BME280;66749;47.406;18.822;2023-02-11T00:32:39;102480.41;;;-4.62;74.46
76994;BME280;66749;47.406;18.822;2023-02-11T00:33:13;102477.13;;;-4.59;74.87
76994;BME280;66749;47.406;18.822;2023-02-11T00:33:45;102477.09;;;-4.61;74.72
76994;BME280;66749;47.406;18.822;2023-02-11T00:34:17;102476.19;;;-4.61;75.20
76994;BME280;66749;47.406;18.822;2023-02-11T00:34:51;102479.63;;;-4.61;75.14
76994;BME280;66749;47.406;18.822;2023-02-11T00:35:22;102469.44;;;-4.61;75.24
76994;BME280;66749;47.406;18.822;2023-02-11T00:35:54;102479.69;;;-4.59;74.92
76994;BME280;66749;47.406;18.822;2023-02-11T00:36:27;102478.00;;;-4.59;75.21
76994;BME280;66749;47.406;18.822;2023-02-11T00:36:59;102478.72;;;-4.61;74.93
76994;BME280;66749;47.406;18.822;2023-02-11T00:37:31;102482.97;;;-4.62;75.03
76994;BME280;66749;47.406;18.822;2023-02-11T00:38:06;102479.53;;;-4.62;74.57
76994;BME280;66749;47.406;18.822;2023-02-11T00:38:38;102478.50;;;-4.67;75.05
76994;BME280;66749;47.406;18.822;2023-02-11T00:39:10;102481.78;;;-4.70;75.17
76994;BME280;66749;47.406;18.822;2023-02-11T00:39:41;102477.50;;;-4.71;74.77
76994;BME280;66749;47.406;18.822;2023-02-11T00:40:13;102481.88;;;-4.68;75.08
76994;BME280;66749;47.406;18.822;2023-02-11T00:40:47;102482.75;;;-4.68;74.68
76994;BME280;66749;47.406;18.822;2023-02-11T00:41:19;102488.63;;;-4.69;75.00
76994;BME280;66749;47.406;18.822;2023-02-11T00:41:51;102474.16;;;-4.70;74.58
76994;BME280;66749;47.406;18.822;2023-02-11T00:42:22;102485.34;;;-4.66;74.87
76994;BME280;66749;47.406;18.822;2023-02-11T00:42:54;102477.66;;;-4.68;74.81
76994;BME280;66749;47.406;18.822;2023-02-11T00:43:26;102479.22;;;-4.70;75.06
76994;BME280;66749;47.406;18.822;2023-02-11T00:43:58;102472.66;;;-4.65;74.92
76994;BME280;66749;47.406;18.822;2023-02-11T00:44:30;102477.84;;;-4.62;75.85
76994;BME280;66749;47.406;18.822;2023-02-11T00:45:03;102473.56;;;-4.63;75.22
76994;BME280;66749;47.406;18.822;2023-02-11T00:45:35;102472.59;;;-4.66;75.65
76994;BME280;66749;47.406;18.822;2023-02-11T00:46:07;102475.25;;;-4.63;75.54
76994;BME280;66749;47.406;18.822;2023-02-11T00:46:39;102470.97;;;-4.64;74.90
76994;BME280;66749;47.406;18.822;2023-02-11T00:47:11;102470.31;;;-4.60;75.48
76994;BME280;66749;47.406;18.822;2023-02-11T00:47:43;102467.00;;;-4.58;75.29
76994;BME280;66749;47.406;18.822;2023-02-11T00:48:14;102467.97;;;-4.54;75.95
76994;BME280;66749;47.406;18.822;2023-02-11T00:48:46;102468.06;;;-4.53;75.80
76994;BME280;66749;47.406;18.822;2023-02-11T00:49:18;102464.66;;;-4.53;76.28
76994;BME280;66749;47.406;18.822;2023-02-11T00:49:50;102467.19;;;-4.53;75.96
76994;BME280;66749;47.406;18.822;2023-02-11T00:50:22;102467.09;;;-4.55;75.49
76994;BME280;66749;47.406;18.822;2023-02-11T00:50:54;102467.91;;;-4.56;75.82
76994;BME280;66749;47.406;18.822;2023-02-11T00:51:27;102462.97;;;-4.53;75.17
76994;BME280;66749;47.406;18.822;2023-02-11T00:51:59;102466.25;;;-4.55;75.04
76994;BME280;66749;47.406;18.822;2023-02-11T00:52:31;102466.94;;;-4.59;74.93
76994;BME280;66749;47.406;18.822;2023-02-11T00:53:03;102464.44;;;-4.58;75.16
76994;BME280;66749;47.406;18.822;2023-02-11T00:53:35;102460.13;;;-4.60;75.48
76994;BME280;66749;47.406;18.822;2023-02-11T00:54:07;102469.25;;;-4.65;74.92
76994;BME280;66749;47.406;18.822;2023-02-11T00:54:39;102471.69;;;-4.68;74.82
76994;BME280;66749;47.406;18.822;2023-02-11T00:55:11;102468.94;;;-4.73;75.18
76994;BME280;66749;47.406;18.822;2023-02-11T00:55:42;102463.84;;;-4.73;75.26
76994;BME280;66749;47.406;18.822;2023-02-11T00:56:14;102468.06;;;-4.73;75.06
76994;BME280;66749;47.406;18.822;2023-02-11T00:56:46;102468.13;;;-4.72;74.86
76994;BME280;66749;47.406;18.822;2023-02-11T00:57:17;102469.69;;;-4.76;75.08
76994;BME280;66749;47.406;18.822;2023-02-11T00:57:49;102469.56;;;-4.79;74.72
76994;BME280;66749;47.406;18.822;2023-02-11T00:58:21;102465.22;;;-4.81;75.08
76994;BME280;66749;47.406;18.822;2023-02-11T00:58:53;102465.22;;;-4.81;75.46
76994;BME280;66749;47.406;18.822;2023-02-11T00:59:24;102463.59;;;-4.79;75.01
76994;BME280;66749;47.406;18.822;2023-02-11T00:59:56;102460.13;;;-4.81;74.72
76994;BME280;66749;47.406;18.822;2023-02-11T01:00:28;102466.25;;;-4.76;75.13
76994;BME280;66749;47.406;18.822;2023-02-11T01:01:00;102459.44;;;-4.77;75.07
76994;BME280;66749;47.406;18.822;2023-02-11T01:01:31;102461.97;;;-4.77;75.06
76994;BME280;66749;47.406;18.822;2023-02-11T01:02:03;102464.59;;;-4.76;74.74
76994;BME280;66749;47.406;18.822;2023-02-11T01:02:35;102465.47;;;-4.75;75.04
76994;BME280;66749;47.406;18.822;2023-02-11T01:03:06;102462.13;;;-4.74;74.64
76994;BME280;66749;47.406;18.822;2023-02-11T01:03:39;102458.63;;;-4.76;74.67
76994;BME280;66749;47.406;18.822;2023-02-11T01:04:11;102459.44;;;-4.77;74.95
76994;BME280;66749;47.406;18.822;2023-02-11T01:04:42;102455.09;;;-4.80;74.70
76994;BME280;66749;47.406;18.822;2023-02-11T01:05:14;102459.31;;;-4.80;74.86
76994;BME280;66749;47.406;18.822;2023-02-11T01:05:46;102462.84;;;-4.77;75.37
76994;BME280;66749;47.406;18.822;2023-02-11T01:06:18;102455.28;;;-4.75;74.41
76994;BME280;66749;47.406;18.822;2023-02-11T01:06:49;102457.03;;;-4.74;74.76
76994;BME280;66749;47.406;18.822;2023-02-11T01:07:21;102456.16;;;-4.75;74.72
76994;BME280;66749;47.406;18.822;2023-02-11T01:07:53;102454.47;;;-4.74;74.39
76994;BME280;66749;47.406;18.822;2023-02-11T01:08:25;102449.38;;;-4.74;74.51
76994;BME280;66749;47.406;18.822;2023-02-11T01:08:57;102450.97;;;-4.76;74.87
76994;BME280;66749;47.406;18.822;2023-02-11T01:09:29;102451.94;;;-4.74;74.95
76994;BME280;66749;47.406;18.822;2023-02-11T01:10:01;102449.38;;;-4.74;74.85
76994;BME280;66749;47.406;18.822;2023-02-11T01:10:32;102445.97;;;-4.75;74.58
76994;BME280;66749;47.406;18.822;2023-02-11T01:11:09;102446.84;;;-4.74;74.81
76994;BME280;66749;47.406;18.822;2023-02-11T01:11:42;102448.56;;;-4.73;74.99
76994;BME280;66749;47.406;18.822;2023-02-11T01:12:14;102444.28;;;-4.74;74.68
76994;BME280;66749;47.406;18.822;2023-02-11T01:12:46;102447.66;;;-4.75;75.32
76994;BME280;66749;47.406;18.822;2023-02-11T01:13:18;102448.38;;;-4.78;74.99
76994;BME280;66749;47.406;18.822;2023-02-11T01:13:50;102442.41;;;-4.78;75.02
76994;BME280;66749;47.406;18.822;2023-02-11T01:14:22;102440.00;;;-4.75;74.71
76994;BME280;66749;47.406;18.822;2023-02-11T01:14:53;102438.38;;;-4.73;75.29
76994;BME280;66749;47.406;18.822;2023-02-11T01:15:25;102434.22;;;-4.71;75.27
76994;BME280;66749;47.406;18.822;2023-02-11T01:15:57;102440.06;;;-4.73;74.78
76994;BME280;66749;47.406;18.822;2023-02-11T01:16:29;102434.97;;;-4.73;74.79
76994;BME280;66749;47.406;18.822;2023-02-11T01:17:04;102434.91;;;-4.75;75.02
76994;BME280;66749;47.406;18.822;2023-02-11T01:17:36;102436.50;;;-4.77;74.28
76994;BME280;66749;47.406;18.822;2023-02-11T01:18:08;102438.13;;;-4.79;74.86
76994;BME280;66749;47.406;18.822;2023-02-11T01:18:40;102433.09;;;-4.78;74.31
76994;BME280;66749;47.406;18.822;2023-02-11T01:19:14;102439.88;;;-4.78;74.56
76994;BME280;66749;47.406;18.822;2023-02-11T01:19:46;102437.88;;;-4.85;74.65
76994;BME280;66749;47.406;18.822;2023-02-11T01:20:25;102431.88;;;-4.87;75.28
76994;BME280;66749;47.406;18.822;2023-02-11T01:20:56;102433.59;;;-4.86;74.92
76994;BME280;66749;47.406;18.822;2023-02-11T01:21:28;102435.34;;;-4.85;75.63
76994;BME280;66749;47.406;18.822;2023-02-11T01:22:00;102425.03;;;-4.88;75.18
76994;BME280;66749;47.406;18.822;2023-02-11T01:22:32;102432.69;;;-4.88;75.07
76994;BME280;66749;47.406;18.822;2023-02-11T01:23:04;102425.03;;;-4.88;75.41
76994;BME280;66749;47.406;18.822;2023-02-11T01:23:36;102426.84;;;-4.86;74.71
76994;BME280;66749;47.406;18.822;2023-02-11T01:24:08;102425.22;;;-4.84;74.86
76994;BME280;66749;47.406;18.822;2023-02-11T01:24:39;102424.28;;;-4.86;75.10
76994;BME280;66749;47.406;18.822;2023-02-11T01:25:11;102420.00;;;-4.87;75.18
76994;BME280;66749;47.406;18.822;2023-02-11T01:25:43;102427.69;;;-4.85;74.59
76994;BME280;66749;47.406;18.822;2023-02-11T01:26:15;102425.22;;;-4.84;74.70
76994;BME280;66749;47.406;18.822;2023-02-11T01:26:46;102429.44;;;-4.84;74.60
76994;BME280;66749;47.406;18.822;2023-02-11T01:27:18;102424.44;;;-4.83;75.09
76994;BME280;66749;47.406;18.822;2023-02-11T01:27:50;102423.56;;;-4.83;74.43
76994;BME280;66749;47.406;18.822;2023-02-11T01:28:24;102422.66;;;-4.84;74.59
76994;BME280;66749;47.406;18.822;2023-02-11T01:28:56;102425.97;;;-4.86;74.60
76994;BME280;66749;47.406;18.822;2023-02-11T01:29:30;102426.97;;;-4.83;75.37
76994;BME280;66749;47.406;18.822;2023-02-11T01:30:05;102430.38;;;-4.82;74.38
76994;BME280;66749;47.406;18.822;2023-02-11T01:30:38;102423.63;;;-4.82;74.29
76994;BME280;66749;47.406;18.822;2023-02-11T01:31:10;102423.56;;;-4.83;74.54
76994;BME280;66749;47.406;18.822;2023-02-11T01:31:41;102418.38;;;-4.85;74.21
76994;BME280;66749;47.406;18.822;2023-02-11T01:32:13;102426.88;;;-4.84;74.49
76994;BME280;66749;47.406;18.822;2023-02-11T01:32:45;102425.03;;;-4.88;74.66
76994;BME280;66749;47.406;18.822;2023-02-11T01:33:16;102422.50;;;-4.88;74.79
76994;BME280;66749;47.406;18.822;2023-02-11T01:33:48;102424.13;;;-4.90;74.99
76994;BME280;66749;47.406;18.822;2023-02-11T01:34:20;102421.63;;;-4.89;74.39
76994;BME280;66749;47.406;18.822;2023-02-11T01:34:52;102423.25;;;-4.91;74.79
76994;BME280;66749;47.406;18.822;2023-02-11T01:35:23;102423.25;;;-4.91;74.23
76994;BME280;66749;47.406;18.822;2023-02-11T01:35:59;102422.38;;;-4.91;74.65
76994;BME280;66749;47.406;18.822;2023-02-11T01:36:31;102426.47;;;-4.95;74.27
76994;BME280;66749;47.406;18.822;2023-02-11T01:37:03;102425.63;;;-4.95;74.68
76994;BME280;66749;47.406;18.822;2023-02-11T01:37:35;102418.91;;;-4.93;74.13
76994;BME280;66749;47.406;18.822;2023-02-11T01:38:08;102421.28;;;-4.98;74.38
76994;BME280;66749;47.406;18.822;2023-02-11T01:38:45;102420.53;;;-4.95;75.09
76994;BME280;66749;47.406;18.822;2023-02-11T01:39:16;102413.66;;;-4.98;75.02
76994;BME280;66749;47.406;18.822;2023-02-11T01:39:48;102410.94;;;-5.01;74.41
76994;BME280;66749;47.406;18.822;2023-02-11T01:40:20;102417.88;;;-4.98;75.11
76994;BME280;66749;47.406;18.822;2023-02-11T01:41:06;102412.78;;;-4.98;75.08
76994;BME280;66749;47.406;18.822;2023-02-11T01:41:39;102417.78;;;-5.00;74.80
76994;BME280;66749;47.406;18.822;2023-02-11T01:42:15;102411.97;;;-4.97;74.60
76994;BME280;66749;47.406;18.822;2023-02-11T01:42:47;102419.50;;;-4.99;75.06
76994;BME280;66749;47.406;18.822;2023-02-11T01:43:23;102415.31;;;-4.98;74.37
76994;BME280;66749;47.406;18.822;2023-02-11T01:43:55;102413.44;;;-5.03;74.52
76994;BME280;66749;47.406;18.822;2023-02-11T01:44:33;102423.56;;;-5.04;74.62
76994;BME280;66749;47.406;18.822;2023-02-11T01:46:33;102409.16;;;-5.04;74.26
76994;BME280;66749;47.406;18.822;2023-02-11T01:47:06;102416.00;;;-5.03;74.95
76994;BME280;66749;47.406;18.822;2023-02-11T01:47:38;102418.53;;;-5.03;74.45
76994;BME280;66749;47.406;18.822;2023-02-11T01:48:13;102416.00;;;-5.03;75.28
76994;BME280;66749;47.406;18.822;2023-02-11T01:48:50;102413.44;;;-5.03;74.49
76994;BME280;66749;47.406;18.822;2023-02-11T01:49:27;102410.28;;;-4.97;75.37
76994;BME280;66749;47.406;18.822;2023-02-11T01:50:01;102418.09;;;-4.92;75.12
76994;BME280;66749;47.406;18.822;2023-02-11T01:50:33;102416.41;;;-4.92;75.51
76994;BME280;66749;47.406;18.822;2023-02-11T01:51:10;102416.50;;;-4.90;75.07
76994;BME280;66749;47.406;18.822;2023-02-11T01:51:49;102413.84;;;-4.92;74.89
76994;BME280;66749;47.406;18.822;2023-02-11T01:52:26;102412.19;;;-4.91;75.68
76994;BME280;66749;47.406;18.822;2023-02-11T01:53:01;102415.69;;;-4.89;75.75
76994;BME280;66749;47.406;18.822;2023-02-11T01:53:53;102414.72;;;-4.91;75.35
76994;BME280;66749;47.406;18.822;2023-02-11T01:54:51;102414.72;;;-4.91;74.78
76994;BME280;66749;47.406;18.822;2023-02-11T01:55:42;102408.59;;;-4.96;74.50
76994;BME280;66749;47.406;18.822;2023-02-11T01:56:36;102412.56;;;-5.03;74.78
76994;BME280;66749;47.406;18.822;2023-02-11T01:57:31;102407.44;;;-5.05;74.19
76994;BME280;66749;47.406;18.822;2023-02-11T01:58:04;102410.84;;;-5.04;74.09
76994;BME280;66749;47.406;18.822;2023-02-11T01:58:40;102404.03;;;-5.05;74.20
76994;BME280;66749;47.406;18.822;2023-02-11T01:59:23;102407.19;;;-5.11;74.59
76994;BME280;66749;47.406;18.822;2023-02-11T02:00:38;102408.66;;;-5.16;74.23
76994;BME280;66749;47.406;18.822;2023-02-11T02:01:15;102406.13;;;-5.16;74.85
76994;BME280;66749;47.406;18.822;2023-02-11T02:01:55;102405.19;;;-5.18;74.50
76994;BME280;66749;47.406;18.822;2023-02-11T02:02:40;102411.19;;;-5.16;74.74
76994;BME280;66749;47.406;18.822;2023-02-11T02:03:17;102407.78;;;-5.16;74.35
76994;BME280;66749;47.406;18.822;2023-02-11T02:03:56;102412.81;;;-5.18;74.10
76994;BME280;66749;47.406;18.822;2023-02-11T02:04:34;102411.91;;;-5.20;74.98
76994;BME280;66749;47.406;18.822;2023-02-11T02:05:50;102417.16;;;-5.15;75.15
76994;BME280;66749;47.406;18.822;2023-02-11T02:07:11;102409.34;;;-5.20;74.80
76994;BME280;66749;47.406;18.822;2023-02-11T02:08:13;102413.50;;;-5.22;75.73
76994;BME280;66749;47.406;18.822;2023-02-11T02:09:26;102414.50;;;-5.18;75.28
76994;BME280;66749;47.406;18.822;2023-02-11T02:10:04;102413.59;;;-5.20;75.14
76994;BME280;66749;47.406;18.822;2023-02-11T02:10:42;102411.75;;;-5.23;75.39
76994;BME280;66749;47.406;18.822;2023-02-11T02:11:14;102416.03;;;-5.22;75.26
76994;BME280;66749;47.406;18.822;2023-02-11T02:11:46;102414.31;;;-5.23;75.91
76994;BME280;66749;47.406;18.822;2023-02-11T02:12:18;102413.50;;;-5.22;75.81
76994;BME280;66749;47.406;18.822;2023-02-11T02:12:50;102408.50;;;-5.20;75.71
76994;BME280;66749;47.406;18.822;2023-02-11T02:13:22;102418.66;;;-5.20;75.79
76994;BME280;66749;47.406;18.822;2023-02-11T02:13:54;102404.22;;;-5.21;75.51
76994;BME280;66749;47.406;18.822;2023-02-11T02:14:26;102405.09;;;-5.21;75.71
76994;BME280;66749;47.406;18.822;2023-02-11T02:15:31;102406.00;;;-5.19;75.70
76994;BME280;66749;47.406;18.822;2023-02-11T02:16:06;102410.34;;;-5.16;76.38
76994;BME280;66749;47.406;18.822;2023-02-11T02:16:40;102411.25;;;-5.14;75.83
76994;BME280;66749;47.406;18.822;2023-02-11T02:17:26;102408.00;;;-5.12;76.39
76994;BME280;66749;47.406;18.822;2023-02-11T02:25:39;102401.38;;;-4.86;76.82
76994;BME280;66749;47.406;18.822;2023-02-11T02:29:08;102396.19;;;-4.89;76.99
76994;BME280;66749;47.406;18.822;2023-02-11T02:30:44;102393.38;;;-4.95;77.81
76994;BME280;66749;47.406;18.822;2023-02-11T02:31:43;102398.59;;;-4.92;77.85
76994;BME280;66749;47.406;18.822;2023-02-11T02:33:59;102397.56;;;-4.97;78.10
76994;BME280;66749;47.406;18.822;2023-02-11T02:34:46;102387.22;;;-5.00;78.02
76994;BME280;66749;47.406;18.822;2023-02-11T02:36:19;102400.81;;;-4.99;78.35
76994;BME280;66749;47.406;18.822;2023-02-11T02:36:43;102398.47;;;-4.95;78.50
76994;BME280;66749;47.406;18.822;2023-02-11T02:39:17;102392.53;;;-4.95;77.78
76994;BME280;66749;47.406;18.822;2023-02-11T02:39:50;102399.44;;;-4.91;77.90
76994;BME280;66749;47.406;18.822;2023-02-11T02:40:35;102395.31;;;-4.89;77.72
76994;BME280;66749;47.406;18.822;2023-02-11T02:41:12;102391.91;;;-4.90;77.86
76994;BME280;66749;47.406;18.822;2023-02-11T02:41:48;102386.91;;;-4.87;77.89
76994;BME280;66749;47.406;18.822;2023-02-11T02:42:22;102393.69;;;-4.87;77.84
76994;BME280;66749;47.406;18.822;2023-02-11T02:42:55;102390.28;;;-4.88;77.73
76994;BME280;66749;47.406;18.822;2023-02-11T02:43:28;102389.47;;;-4.87;77.48
76994;BME280;66749;47.406;18.822;2023-02-11T02:44:00;102387.72;;;-4.88;78.05
76994;BME280;66749;47.406;18.822;2023-02-11T02:44:32;102390.28;;;-4.88;77.81
76994;BME280;66749;47.406;18.822;2023-02-11T02:45:06;102385.19;;;-4.88;78.09
76994;BME280;66749;47.406;18.822;2023-02-11T02:45:39;102386.97;;;-4.85;77.61
76994;BME280;66749;47.406;18.822;2023-02-11T02:46:14;102389.56;;;-4.84;77.26
76994;BME280;66749;47.406;18.822;2023-02-11T02:46:46;102391.34;;;-4.83;77.46
76994;BME280;66749;47.406;18.822;2023-02-11T02:47:18;102387.91;;;-4.83;77.81
76994;BME280;66749;47.406;18.822;2023-02-11T02:47:50;102387.03;;;-4.84;77.70
76994;BME280;66749;47.406;18.822;2023-02-11T02:48:32;102379.47;;;-4.82;77.62
76994;BME280;66749;47.406;18.822;2023-02-11T02:49:11;102384.47;;;-4.84;77.50
76994;BME280;66749;47.406;18.822;2023-02-11T02:49:44;102382.00;;;-4.82;77.36
76994;BME280;66749;47.406;18.822;2023-02-11T02:50:20;102392.19;;;-4.82;77.22
76994;BME280;66749;47.406;18.822;2023-02-11T02:54:33;102388.78;;;-4.83;77.01
76994;BME280;66749;47.406;18.822;2023-02-11T02:55:27;102396.19;;;-4.89;77.07
76994;BME280;66749;47.406;18.822;2023-02-11T02:56:12;102392.81;;;-4.88;77.25
76994;BME280;66749;47.406;18.822;2023-02-11T02:56:54;102386.72;;;-4.91;77.49
76994;BME280;66749;47.406;18.822;2023-02-11T02:57:57;102389.34;;;-4.90;77.97
76994;BME280;66749;47.406;18.822;2023-02-11T02:58:53;102385.84;;;-4.92;77.79
76994;BME280;66749;47.406;18.822;2023-02-11T03:00:53;102380.75;;;-4.92;78.46
76994;BME280;66749;47.406;18.822;2023-02-11T03:04:04;102380.47;;;-4.99;77.76
76994;BME280;66749;47.406;18.822;2023-02-11T03:04:47;102372.81;;;-4.99;77.94
76994;BME280;66749;47.406;18.822;2023-02-11T03:05:30;102379.69;;;-4.98;77.96
76994;BME280;66749;47.406;18.822;2023-02-11T03:07:15;102380.75;;;-4.92;77.78
76994;BME280;66749;47.406;18.822;2023-02-11T03:08:07;102380.03;;;-4.89;77.72
76994;BME280;66749;47.406;18.822;2023-02-11T03:09:43;102380.91;;;-4.89;77.55
76994;BME280;66749;47.406;18.822;2023-02-11T03:10:37;102380.91;;;-4.89;78.07
76994;BME280;66749;47.406;18.822;2023-02-11T03:11:14;102380.09;;;-4.88;77.26
76994;BME280;66749;47.406;18.822;2023-02-11T03:11:47;102376.69;;;-4.88;77.02
76994;BME280;66749;47.406;18.822;2023-02-11T03:12:21;102381.78;;;-4.88;77.44
76994;BME280;66749;47.406;18.822;2023-02-11T03:12:56;102380.09;;;-4.88;77.42
76994;BME280;66749;47.406;18.822;2023-02-11T03:13:31;102376.78;;;-4.85;77.19
76994;BME280;66749;47.406;18.822;2023-02-11T03:14:07;102378.59;;;-4.83;77.52
76994;BME280;66749;47.406;18.822;2023-02-11T03:14:40;102384.63;;;-4.81;77.37
76994;BME280;66749;47.406;18.822;2023-02-11T03:15:14;102380.38;;;-4.80;77.35
76994;BME280;66749;47.406;18.822;2023-02-11T03:15:50;102383.84;;;-4.78;77.11
76994;BME280;66749;47.406;18.822;2023-02-11T03:16:26;102375.34;;;-4.79;77.20
76994;BME280;66749;47.406;18.822;2023-02-11T03:17:01;102387.22;;;-4.79;76.72
76994;BME280;66749;47.406;18.822;2023-02-11T03:17:39;102377.84;;;-4.80;76.88
76994;BME280;66749;47.406;18.822;2023-02-11T03:18:16;102382.94;;;-4.80;76.73
76994;BME280;66749;47.406;18.822;2023-02-11T03:18:58;102379.53;;;-4.81;76.96
76994;BME280;66749;47.406;18.822;2023-02-11T03:19:38;102375.06;;;-4.86;76.19
76994;BME280;66749;47.406;18.822;2023-02-11T03:20:15;102371.69;;;-4.85;76.64
76994;BME280;66749;47.406;18.822;2023-02-11T03:20:50;102373.38;;;-4.86;77.16
76994;BME280;66749;47.406;18.822;2023-02-11T03:21:24;102373.31;;;-4.87;77.39
76994;BME280;66749;47.406;18.822;2023-02-11T03:21:57;102369.16;;;-4.85;76.90
76994;BME280;66749;47.406;18.822;2023-02-11T03:22:39;102366.75;;;-4.82;77.30
76994;BME280;66749;47.406;18.822;2023-02-11T03:23:20;102373.56;;;-4.81;77.06
76994;BME280;66749;47.406;18.822;2023-02-11T03:23:56;102368.34;;;-4.84;76.47
76994;BME280;66749;47.406;18.822;2023-02-11T03:24:32;102365.00;;;-4.83;76.29
76994;BME280;66749;47.406;18.822;2023-02-11T03:25:06;102364.19;;;-4.82;76.87
76994;BME280;66749;47.406;18.822;2023-02-11T03:25:44;102369.28;;;-4.82;76.34
76994;BME280;66749;47.406;18.822;2023-02-11T03:26:29;102376.09;;;-4.81;76.63
76994;BME280;66749;47.406;18.822;2023-02-11T03:27:26;102371.84;;;-4.82;76.33
76994;BME280;66749;47.406;18.822;2023-02-11T03:29:32;102368.22;;;-4.87;77.13
76994;BME280;66749;47.406;18.822;2023-02-11T03:30:56;102367.16;;;-4.92;76.41
76994;BME280;66749;47.406;18.822;2023-02-11T03:32:24;102366.34;;;-4.91;76.39
76994;BME280;66749;47.406;18.822;2023-02-11T03:33:09;102368.78;;;-4.94;76.53